sensor_id;sensor_type;location;lat;lon;timestamp;pressure;altitude;pressure_sealevel;temperature;humidity
3206;BME280;1615;53.602;11.418;2022-10-16T00:00:34;100592.38;;;16.87;100.00
3206;BME280;1615;53.602;11.418;2022-10-16T00:03:00;100589.47;;;16.84;100.00
3206;BME280;1615;53.602;11.418;2022-10-16T00:05:25;100571.66;;;16.73;100.00
3206;BME280;1615;53.602;11.418;2022-10-16T00:07:50;100601.91;;;16.78;100.00
3206;BME280;1615;53.602;11.418;2022-10-16T00:10:16;100490.78;;;16.06;100.00
3206;BME280;1615;53.602;11.418;2022-10-16T00:12:41;100606.69;;;16.69;100.00
3206;BME280;1615;53.602;11.418;2022-10-16T00:15:07;100597.25;;;16.70;100.00
3206;BME280;1615;53.602;11.418;2022-10-16T00:17:32;100595.97;;;16.67;100.00
3206;BME280;1615;53.602;11.418;2022-10-16T00:19:57;100607.13;;;16.59;100.00
3206;BME280;1615;53.602;11.418;2022-10-16T00:22:23;100604.75;;;16.49;100.00
3206;BME280;1615;53.602;11.418;2022-10-16T00:24:48;100617.44;;;16.50;100.00
3206;BME280;1615;53.602;11.418;2022-10-16T00:27:14;100600.69;;;16.46;100.00
3206;BME280;1615;53.602;11.418;2022-10-16T00:29:39;100589.66;;;16.38;100.00
3206;BME280;1615;53.602;11.418;2022-10-16T00:32:04;100606.75;;;16.40;100.00
3206;BME280;1615;53.602;11.418;2022-10-16T00:34:30;100610.16;;;16.37;100.00
3206;BME280;1615;53.602;11.418;2022-10-16T00:36:55;100606.59;;;16.36;100.00
3206;BME280;1615;53.602;11.418;2022-10-16T00:39:20;100599.81;;;16.25;100.00
3206;BME280;1615;53.602;11.418;2022-10-16T00:41:46;100619.47;;;16.32;100.00
3206;BME280;1615;53.602;11.418;2022-10-16T00:44:50;100618.84;;;16.27;100.00
3206;BME280;1615;53.602;11.418;2022-10-16T00:47:41;100625.03;;;16.24;100.00
3206;BME280;1615;53.602;11.418;2022-10-16T00:50:10;100628.28;;;16.26;100.00
3206;BME280;1615;53.602;11.418;2022-10-16T00:52:42;100624.59;;;16.22;100.00
3206;BME280;1615;53.602;11.418;2022-10-16T00:55:09;100627.19;;;16.18;100.00
3206;BME280;1615;53.602;11.418;2022-10-16T00:57:35;100529.78;;;15.55;100.00
3206;BME280;1615;53.602;11.418;2022-10-16T01:00:05;100628.38;;;16.09;100.00
3206;BME280;1615;53.602;11.418;2022-10-16T01:02:31;100628.69;;;16.16;100.00
3206;BME280;1615;53.602;11.418;2022-10-16T01:04:56;100629.34;;;16.13;100.00
3206;BME280;1615;53.602;11.418;2022-10-16T01:07:46;100634.69;;;16.18;100.00
3206;BME280;1615;53.602;11.418;2022-10-16T01:10:40;100642.16;;;16.17;100.00
3206;BME280;1615;53.602;11.418;2022-10-16T01:13:16;100646.22;;;16.20;100.00
3206;BME280;1615;53.602;11.418;2022-10-16T01:18:34;100642.16;;;16.17;100.00
3206;BME280;1615;53.602;11.418;2022-10-16T01:21:22;100653.09;;;16.14;100.00
3206;BME280;1615;53.602;11.418;2022-10-16T01:32:00;100576.41;;;15.56;100.00
3206;BME280;1615;53.602;11.418;2022-10-16T01:34:35;100653.78;;;16.02;100.00
3206;BME280;1615;53.602;11.418;2022-10-16T01:37:06;100650.22;;;16.02;100.00
3206;BME280;1615;53.602;11.418;2022-10-16T01:39:35;100655.28;;;16.00;100.00
3206;BME280;1615;53.602;11.418;2022-10-16T01:42:12;100663.41;;;15.96;100.00
3206;BME280;1615;53.602;11.418;2022-10-16T01:44:39;100652.19;;;15.93;100.00
3206;BME280;1615;53.602;11.418;2022-10-16T01:47:08;100649.75;;;15.91;100.00
3206;BME280;1615;53.602;11.418;2022-10-16T01:49:37;100648.97;;;15.91;100.00
3206;BME280;1615;53.602;11.418;2022-10-16T01:52:06;100657.44;;;15.86;100.00
3206;BME280;1615;53.602;11.418;2022-10-16T01:54:35;100658.75;;;15.80;100.00
3206;BME280;1615;53.602;11.418;2022-10-16T01:57:04;100667.09;;;15.71;100.00
3206;BME280;1615;53.602;11.418;2022-10-16T01:59:33;100662.50;;;15.75;100.00
3206;BME280;1615;53.602;11.418;2022-10-16T02:02:04;100657.78;;;15.76;100.00
3206;BME280;1615;53.602;11.418;2022-10-16T02:04:42;100672.25;;;15.73;100.00
3206;BME280;1615;53.602;11.418;2022-10-16T02:07:08;100686.97;;;15.48;100.00
3206;BME280;1615;53.602;11.418;2022-10-16T02:09:35;100665.78;;;15.69;100.00
3206;BME280;1615;53.602;11.418;2022-10-16T02:12:05;100669.19;;;15.66;100.00
3206;BME280;1615;53.602;11.418;2022-10-16T02:14:33;100670.81;;;15.67;100.00
3206;BME280;1615;53.602;11.418;2022-10-16T02:16:58;100669.06;;;15.62;100.00
3206;BME280;1615;53.602;11.418;2022-10-16T02:19:24;100669.56;;;15.56;100.00
3206;BME280;1615;53.602;11.418;2022-10-16T02:21:51;100673.13;;;15.56;100.00
3206;BME280;1615;53.602;11.418;2022-10-16T02:27:24;100671.84;;;15.54;100.00
3206;BME280;1615;53.602;11.418;2022-10-16T02:29:55;100685.19;;;15.52;100.00
3206;BME280;1615;53.602;11.418;2022-10-16T02:32:26;100676.06;;;15.60;100.00
3206;BME280;1615;53.602;11.418;2022-10-16T02:34:55;100679.81;;;15.55;100.00
3206;BME280;1615;53.602;11.418;2022-10-16T02:37:21;100676.69;;;15.57;100.00
3206;BME280;1615;53.602;11.418;2022-10-16T02:39:46;100685.34;;;15.55;100.00
3206;BME280;1615;53.602;11.418;2022-10-16T02:42:13;100662.44;;;15.38;100.00
3206;BME280;1615;53.602;11.418;2022-10-16T02:44:39;100689.75;;;15.48;100.00
3206;BME280;1615;53.602;11.418;2022-10-16T02:47:04;100686.16;;;15.47;100.00
3206;BME280;1615;53.602;11.418;2022-10-16T02:49:29;100677.84;;;15.47;100.00
3206;BME280;1615;53.602;11.418;2022-10-16T02:51:55;100677.72;;;15.44;100.00
3206;BME280;1615;53.602;11.418;2022-10-16T02:54:20;100676.72;;;15.40;100.00
3206;BME280;1615;53.602;11.418;2022-10-16T02:56:45;100670.72;;;15.38;100.00
3206;BME280;1615;53.602;11.418;2022-10-16T02:59:10;100670.41;;;15.39;100.00
3206;BME280;1615;53.602;11.418;2022-10-16T03:01:36;100669.44;;;15.35;100.00
3206;BME280;1615;53.602;11.418;2022-10-16T03:04:01;100671.88;;;15.37;100.00
3206;BME280;1615;53.602;11.418;2022-10-16T03:06:26;100669.44;;;15.35;100.00
3206;BME280;1615;53.602;11.418;2022-10-16T03:08:51;100641.97;;;15.22;100.00
3206;BME280;1615;53.602;11.418;2022-10-16T03:11:17;100573.63;;;14.76;100.00
3206;BME280;1615;53.602;11.418;2022-10-16T03:13:42;100667.00;;;15.34;100.00
3206;BME280;1615;53.602;11.418;2022-10-16T03:16:07;100668.63;;;15.35;100.00
3206;BME280;1615;53.602;11.418;2022-10-16T03:18:33;100674.28;;;15.38;100.00
3206;BME280;1615;53.602;11.418;2022-10-16T03:20:58;100673.16;;;15.31;100.00
3206;BME280;1615;53.602;11.418;2022-10-16T03:23:23;100672.81;;;15.24;100.00
3206;BME280;1615;53.602;11.418;2022-10-16T03:25:48;100681.75;;;15.29;100.00
3206;BME280;1615;53.602;11.418;2022-10-16T03:28:14;100675.41;;;15.29;100.00
3206;BME280;1615;53.602;11.418;2022-10-16T03:30:39;100746.09;;;15.21;100.00
3206;BME280;1615;53.602;11.418;2022-10-16T03:33:05;100675.25;;;15.25;100.00
3206;BME280;1615;53.602;11.418;2022-10-16T03:35:30;100679.47;;;15.23;100.00
3206;BME280;1615;53.602;11.418;2022-10-16T03:37:55;100673.50;;;15.21;100.00
3206;BME280;1615;53.602;11.418;2022-10-16T03:40:21;100640.19;;;15.09;100.00
3206;BME280;1615;53.602;11.418;2022-10-16T03:42:46;100674.44;;;15.25;100.00
3206;BME280;1615;53.602;11.418;2022-10-16T03:45:12;100670.72;;;15.21;100.00
3206;BME280;1615;53.602;11.418;2022-10-16T03:47:37;100674.44;;;15.25;100.00
3206;BME280;1615;53.602;11.418;2022-10-16T03:50:04;100669.75;;;15.25;100.00
3206;BME280;1615;53.602;11.418;2022-10-16T03:52:29;100632.25;;;14.99;100.00
3206;BME280;1615;53.602;11.418;2022-10-16T03:54:54;100679.97;;;15.25;100.00
3206;BME280;1615;53.602;11.418;2022-10-16T03:57:20;100671.69;;;15.25;100.00
3206;BME280;1615;53.602;11.418;2022-10-16T03:59:46;100664.06;;;15.22;100.00
3206;BME280;1615;53.602;11.418;2022-10-16T04:02:12;100661.00;;;15.15;100.00
3206;BME280;1615;53.602;11.418;2022-10-16T04:04:37;100673.50;;;15.21;100.00
3206;BME280;1615;53.602;11.418;2022-10-16T04:07:02;100675.09;;;15.22;100.00
3206;BME280;1615;53.602;11.418;2022-10-16T04:09:28;100670.38;;;15.22;100.00
3206;BME280;1615;53.602;11.418;2022-10-16T04:11:53;100678.84;;;15.17;100.00
3206;BME280;1615;53.602;11.418;2022-10-16T04:14:18;100685.84;;;15.15;100.00
3206;BME280;1615;53.602;11.418;2022-10-16T04:16:44;100680.47;;;15.18;100.00
3206;BME280;1615;53.602;11.418;2022-10-16T04:19:10;100680.78;;;15.17;100.00
3206;BME280;1615;53.602;11.418;2022-10-16T04:21:35;100692.97;;;15.16;100.00
3206;BME280;1615;53.602;11.418;2022-10-16T04:24:01;100642.63;;;14.85;100.00
3206;BME280;1615;53.602;11.418;2022-10-16T04:26:26;100686.63;;;15.07;100.00
3206;BME280;1615;53.602;11.418;2022-10-16T04:28:51;100697.84;;;15.02;100.00
3206;BME280;1615;53.602;11.418;2022-10-16T04:31:17;100698.16;;;15.09;100.00
3206;BME280;1615;53.602;11.418;2022-10-16T04:33:43;100662.78;;;14.94;100.00
3206;BME280;1615;53.602;11.418;2022-10-16T04:36:08;100691.53;;;15.10;100.00
3206;BME280;1615;53.602;11.418;2022-10-16T04:38:33;100700.75;;;15.05;100.00
3206;BME280;1615;53.602;11.418;2022-10-16T04:40:59;100699.47;;;15.03;100.00
3206;BME280;1615;53.602;11.418;2022-10-16T04:43:24;100633.03;;;14.57;100.00
3206;BME280;1615;53.602;11.418;2022-10-16T04:45:51;100707.09;;;14.97;100.00
3206;BME280;1615;53.602;11.418;2022-10-16T04:48:17;100710.34;;;14.99;100.00
3206;BME280;1615;53.602;11.418;2022-10-16T04:50:42;100714.88;;;14.95;100.00
3206;BME280;1615;53.602;11.418;2022-10-16T04:53:08;100712.63;;;14.97;100.00
3206;BME280;1615;53.602;11.418;2022-10-16T04:55:33;100715.38;;;14.89;100.00
3206;BME280;1615;53.602;11.418;2022-10-16T04:57:59;100710.19;;;14.87;100.00
3206;BME280;1615;53.602;11.418;2022-10-16T05:00:24;100709.34;;;14.87;100.00
3206;BME280;1615;53.602;11.418;2022-10-16T05:02:50;100719.91;;;14.85;100.00
3206;BME280;1615;53.602;11.418;2022-10-16T05:05:15;100721.69;;;14.81;100.00
3206;BME280;1615;53.602;11.418;2022-10-16T05:07:41;100727.53;;;14.79;100.00
3206;BME280;1615;53.602;11.418;2022-10-16T05:10:06;100728.34;;;14.80;100.00
3206;BME280;1615;53.602;11.418;2022-10-16T05:12:32;100739.53;;;14.75;100.00
3206;BME280;1615;53.602;11.418;2022-10-16T05:14:58;100727.03;;;14.69;100.00
3206;BME280;1615;53.602;11.418;2022-10-16T05:17:24;100716.78;;;14.61;100.00
3206;BME280;1615;53.602;11.418;2022-10-16T05:19:50;100721.97;;;14.62;100.00
3206;BME280;1615;53.602;11.418;2022-10-16T05:22:15;100740.38;;;14.84;100.00
3206;BME280;1615;53.602;11.418;2022-10-16T05:24:40;100735.50;;;14.89;100.00
3206;BME280;1615;53.602;11.418;2022-10-16T05:27:06;100730.50;;;14.91;100.00
3206;BME280;1615;53.602;11.418;2022-10-16T05:29:31;100744.91;;;14.88;100.00
3206;BME280;1615;53.602;11.418;2022-10-16T05:31:57;100739.56;;;14.92;100.00
3206;BME280;1615;53.602;11.418;2022-10-16T05:34:22;100738.75;;;14.83;100.00
3206;BME280;1615;53.602;11.418;2022-10-16T05:36:47;100745.91;;;14.84;100.00
3206;BME280;1615;53.602;11.418;2022-10-16T05:39:14;100755.31;;;14.83;100.00
3206;BME280;1615;53.602;11.418;2022-10-16T05:41:39;100735.78;;;14.71;100.00
3206;BME280;1615;53.602;11.418;2022-10-16T05:44:05;100728.31;;;14.63;100.00
3206;BME280;1615;53.602;11.418;2022-10-16T05:46:31;100768.97;;;14.88;100.00
3206;BME280;1615;53.602;11.418;2022-10-16T05:48:56;100772.03;;;14.86;100.00
3206;BME280;1615;53.602;11.418;2022-10-16T05:51:22;100777.25;;;14.88;100.00
3206;BME280;1615;53.602;11.418;2022-10-16T05:53:47;100746.19;;;14.74;100.00
3206;BME280;1615;53.602;11.418;2022-10-16T05:56:12;100771.56;;;14.93;100.00
3206;BME280;1615;53.602;11.418;2022-10-16T05:58:38;100689.81;;;14.41;100.00
3206;BME280;1615;53.602;11.418;2022-10-16T06:01:25;100781.97;;;14.96;100.00
3206;BME280;1615;53.602;11.418;2022-10-16T06:03:51;100784.25;;;14.94;100.00
3206;BME280;1615;53.602;11.418;2022-10-16T06:06:19;100789.41;;;14.95;100.00
3206;BME280;1615;53.602;11.418;2022-10-16T06:08:46;100799.16;;;14.93;100.00
3206;BME280;1615;53.602;11.418;2022-10-16T06:11:17;100800.81;;;14.94;100.00
3206;BME280;1615;53.602;11.418;2022-10-16T06:13:43;100792.69;;;14.89;100.00
3206;BME280;1615;53.602;11.418;2022-10-16T06:16:11;100797.38;;;14.97;100.00
3206;BME280;1615;53.602;11.418;2022-10-16T06:18:37;100797.38;;;14.97;100.00
3206;BME280;1615;53.602;11.418;2022-10-16T06:21:11;100799.53;;;15.00;100.00
3206;BME280;1615;53.602;11.418;2022-10-16T06:23:37;100751.69;;;14.65;100.00
3206;BME280;1615;53.602;11.418;2022-10-16T06:26:11;100805.50;;;14.93;100.00
3206;BME280;1615;53.602;11.418;2022-10-16T06:28:38;100779.31;;;14.74;100.00
3206;BME280;1615;53.602;11.418;2022-10-16T06:31:04;100805.81;;;14.92;100.00
3206;BME280;1615;53.602;11.418;2022-10-16T06:33:30;100810.84;;;14.90;100.00
3206;BME280;1615;53.602;11.418;2022-10-16T06:36:14;100808.72;;;14.87;100.00
3206;BME280;1615;53.602;11.418;2022-10-16T06:38:40;100803.34;;;14.82;100.00
3206;BME280;1615;53.602;11.418;2022-10-16T06:41:06;100808.91;;;14.90;100.00
3206;BME280;1615;53.602;11.418;2022-10-16T06:43:33;100807.78;;;14.91;100.00
3206;BME280;1615;53.602;11.418;2022-10-16T06:46:00;100809.56;;;14.96;100.00
3206;BME280;1615;53.602;11.418;2022-10-16T06:48:26;100817.53;;;14.97;100.00
3206;BME280;1615;53.602;11.418;2022-10-16T06:50:57;100819.00;;;14.95;100.00
3206;BME280;1615;53.602;11.418;2022-10-16T06:53:23;100821.41;;;14.88;100.00
3206;BME280;1615;53.602;11.418;2022-10-16T06:55:48;100769.41;;;14.64;100.00
3206;BME280;1615;53.602;11.418;2022-10-16T06:58:14;100828.41;;;14.94;100.00
3206;BME280;1615;53.602;11.418;2022-10-16T07:00:39;100835.88;;;14.93;100.00
3206;BME280;1615;53.602;11.418;2022-10-16T07:03:04;100839.78;;;14.92;100.00
3206;BME280;1615;53.602;11.418;2022-10-16T07:05:29;100835.25;;;14.96;100.00
3206;BME280;1615;53.602;11.418;2022-10-16T07:07:55;100832.13;;;14.98;100.00
3206;BME280;1615;53.602;11.418;2022-10-16T07:10:20;100841.41;;;15.02;100.00
3206;BME280;1615;53.602;11.418;2022-10-16T07:12:49;100841.88;;;14.95;100.00
3206;BME280;1615;53.602;11.418;2022-10-16T07:15:14;100845.13;;;14.89;100.00
3206;BME280;1615;53.602;11.418;2022-10-16T07:17:39;100850.78;;;14.84;100.00
3206;BME280;1615;53.602;11.418;2022-10-16T07:20:05;100849.34;;;14.86;100.00
3206;BME280;1615;53.602;11.418;2022-10-16T07:22:30;100861.16;;;14.87;100.00
3206;BME280;1615;53.602;11.418;2022-10-16T07:24:56;100865.06;;;14.86;100.00
3206;BME280;1615;53.602;11.418;2022-10-16T07:27:21;100836.28;;;14.70;100.00
3206;BME280;1615;53.602;11.418;2022-10-16T07:29:49;100880.72;;;14.99;100.00
3206;BME280;1615;53.602;11.418;2022-10-16T07:32:14;100878.44;;;15.01;100.00
3206;BME280;1615;53.602;11.418;2022-10-16T07:34:39;100873.09;;;15.04;100.00
3206;BME280;1615;53.602;11.418;2022-10-16T07:37:05;100877.16;;;15.07;100.00
3206;BME280;1615;53.602;11.418;2022-10-16T07:39:30;100879.78;;;15.12;100.00
3206;BME280;1615;53.602;11.418;2022-10-16T07:41:55;100880.94;;;15.19;100.00
3206;BME280;1615;53.602;11.418;2022-10-16T07:44:21;100888.91;;;15.21;100.00
3206;BME280;1615;53.602;11.418;2022-10-16T07:46:46;100875.31;;;15.33;100.00
3206;BME280;1615;53.602;11.418;2022-10-16T07:49:11;100877.44;;;15.36;100.00
3206;BME280;1615;53.602;11.418;2022-10-16T07:51:36;100883.16;;;15.48;100.00
3206;BME280;1615;53.602;11.418;2022-10-16T07:54:03;100844.56;;;15.26;100.00
3206;BME280;1615;53.602;11.418;2022-10-16T07:56:30;100878.13;;;15.58;100.00
3206;BME280;1615;53.602;11.418;2022-10-16T07:58:56;100887.22;;;15.67;100.00
3206;BME280;1615;53.602;11.418;2022-10-16T08:01:21;100882.84;;;15.75;100.00
3206;BME280;1615;53.602;11.418;2022-10-16T08:03:49;100875.88;;;15.77;100.00
3206;BME280;1615;53.602;11.418;2022-10-16T08:06:16;100881.06;;;15.96;100.00
3206;BME280;1615;53.602;11.418;2022-10-16T08:08:42;100887.38;;;16.05;100.00
3206;BME280;1615;53.602;11.418;2022-10-16T08:11:08;100883.81;;;16.13;100.00
3206;BME280;1615;53.602;11.418;2022-10-16T08:13:33;100871.13;;;16.12;100.00
3206;BME280;1615;53.602;11.418;2022-10-16T08:15:59;100942.06;;;16.16;100.00
3206;BME280;1615;53.602;11.418;2022-10-16T08:18:25;100893.53;;;16.36;100.00
3206;BME280;1615;53.602;11.418;2022-10-16T08:20:57;100893.22;;;16.46;100.00
3206;BME280;1615;53.602;11.418;2022-10-16T08:23:24;100540.66;;;14.29;100.00
3206;BME280;1615;53.602;11.418;2022-10-16T08:25:51;100892.53;;;16.66;100.00
3206;BME280;1615;53.602;11.418;2022-10-16T08:28:16;100891.41;;;16.58;100.00
3206;BME280;1615;53.602;11.418;2022-10-16T08:30:41;100908.19;;;16.99;100.00
3206;BME280;1615;53.602;11.418;2022-10-16T08:33:07;100896.59;;;17.06;100.00
3206;BME280;1615;53.602;11.418;2022-10-16T08:35:32;100902.84;;;17.23;100.00
3206;BME280;1615;53.602;11.418;2022-10-16T08:37:57;100907.53;;;17.40;100.00
3206;BME280;1615;53.602;11.418;2022-10-16T08:40:25;100913.63;;;17.54;100.00
3206;BME280;1615;53.602;11.418;2022-10-16T08:43:20;100912.25;;;17.68;100.00
3206;BME280;1615;53.602;11.418;2022-10-16T08:46:07;100919.34;;;17.78;100.00
3206;BME280;1615;53.602;11.418;2022-10-16T08:48:47;100900.13;;;17.73;100.00
3206;BME280;1615;53.602;11.418;2022-10-16T08:51:33;100928.97;;;17.80;100.00
3206;BME280;1615;53.602;11.418;2022-10-16T08:56:39;100928.06;;;17.88;100.00
3206;BME280;1615;53.602;11.418;2022-10-16T08:59:10;100906.44;;;17.82;100.00
3206;BME280;1615;53.602;11.418;2022-10-16T09:01:43;100931.00;;;17.92;100.00
3206;BME280;1615;53.602;11.418;2022-10-16T09:06:53;100923.81;;;17.91;100.00
3206;BME280;1615;53.602;11.418;2022-10-16T09:15:16;100937.34;;;18.13;100.00
3206;BME280;1615;53.602;11.418;2022-10-16T09:17:55;100936.53;;;18.33;100.00
3206;BME280;1615;53.602;11.418;2022-10-16T09:20:35;100933.56;;;18.38;100.00
3206;BME280;1615;53.602;11.418;2022-10-16T09:25:28;100877.50;;;18.24;100.00
3206;BME280;1615;53.602;11.418;2022-10-16T09:27:54;100945.00;;;18.69;100.00
3206;BME280;1615;53.602;11.418;2022-10-16T09:30:21;100946.19;;;18.80;100.00
3206;BME280;1615;53.602;11.418;2022-10-16T09:32:52;100939.75;;;18.88;100.00
3206;BME280;1615;53.602;11.418;2022-10-16T09:35:27;100845.41;;;18.35;100.00
3206;BME280;1615;53.602;11.418;2022-10-16T09:37:56;100941.00;;;18.90;100.00
3206;BME280;1615;53.602;11.418;2022-10-16T09:40:30;100951.56;;;18.97;100.00
3206;BME280;1615;53.602;11.418;2022-10-16T09:45:57;100921.91;;;18.89;100.00
3206;BME280;1615;53.602;11.418;2022-10-16T09:48:26;100926.97;;;18.87;100.00
3206;BME280;1615;53.602;11.418;2022-10-16T09:51:01;100943.09;;;18.93;100.00
3206;BME280;1615;53.602;11.418;2022-10-16T09:53:39;100952.50;;;19.01;100.00
3206;BME280;1615;53.602;11.418;2022-10-16T09:56:04;100958.53;;;19.15;100.00
3206;BME280;1615;53.602;11.418;2022-10-16T09:58:31;100954.72;;;19.19;100.00
3206;BME280;1615;53.602;11.418;2022-10-16T10:00:58;100954.19;;;19.26;100.00
3206;BME280;1615;53.602;11.418;2022-10-16T10:03:44;100949.31;;;19.35;100.00
3206;BME280;1615;53.602;11.418;2022-10-16T10:06:27;100954.63;;;19.40;100.00
3206;BME280;1615;53.602;11.418;2022-10-16T10:11:43;100960.66;;;19.54;100.00
3206;BME280;1615;53.602;11.418;2022-10-16T10:14:23;100869.13;;;18.89;100.00
3206;BME280;1615;53.602;11.418;2022-10-16T10:16:51;100973.75;;;19.41;100.00
3206;BME280;1615;53.602;11.418;2022-10-16T10:19:23;100948.81;;;19.21;100.00
3206;BME280;1615;53.602;11.418;2022-10-16T10:21:50;100976.53;;;19.41;100.00
3206;BME280;1615;53.602;11.418;2022-10-16T10:24:18;100972.72;;;19.46;100.00
3206;BME280;1615;53.602;11.418;2022-10-16T10:26:57;100917.31;;;19.17;100.00
3206;BME280;1615;53.602;11.418;2022-10-16T10:32:21;100977.00;;;19.43;100.00
3206;BME280;1615;53.602;11.418;2022-10-16T10:40:40;100964.50;;;19.49;100.00
3206;BME280;1615;53.602;11.418;2022-10-16T10:43:29;100975.50;;;19.58;100.00
3206;BME280;1615;53.602;11.418;2022-10-16T10:46:04;100980.13;;;19.66;100.00
3206;BME280;1615;53.602;11.418;2022-10-16T10:49:34;100975.03;;;19.68;100.00
3206;BME280;1615;53.602;11.418;2022-10-16T10:51:49;100961.47;;;19.66;100.00
3206;BME280;1615;53.602;11.418;2022-10-16T10:54:32;100974.56;;;19.66;100.00
3206;BME280;1615;53.602;11.418;2022-10-16T10:57:24;100973.41;;;19.67;100.00
3206;BME280;1615;53.602;11.418;2022-10-16T11:02:37;100977.56;;;19.85;100.00
3206;BME280;1615;53.602;11.418;2022-10-16T11:05:26;100977.78;;;19.92;100.00
3206;BME280;1615;53.602;11.418;2022-10-16T11:07:58;100912.00;;;19.48;100.00
3206;BME280;1615;53.602;11.418;2022-10-16T11:10:28;100979.16;;;19.98;100.00
3206;BME280;1615;53.602;11.418;2022-10-16T11:13:05;100976.03;;;19.99;100.00
3206;BME280;1615;53.602;11.418;2022-10-16T11:15:39;100981.50;;;20.08;100.00
3206;BME280;1615;53.602;11.418;2022-10-16T11:18:22;100985.31;;;20.15;100.00
3206;BME280;1615;53.602;11.418;2022-10-16T11:20:53;100984.25;;;20.20;100.00
3206;BME280;1615;53.602;11.418;2022-10-16T11:23:28;100982.97;;;20.29;100.00
3206;BME280;1615;53.602;11.418;2022-10-16T11:26:00;100873.38;;;19.58;100.00
3206;BME280;1615;53.602;11.418;2022-10-16T11:28:38;100898.97;;;19.76;100.00
3206;BME280;1615;53.602;11.418;2022-10-16T11:31:22;100993.47;;;20.36;100.00
3206;BME280;1615;53.602;11.418;2022-10-16T11:34:21;100993.97;;;20.26;100.00
3206;BME280;1615;53.602;11.418;2022-10-16T11:39:25;101007.47;;;20.12;100.00
3206;BME280;1615;53.602;11.418;2022-10-16T11:41:53;101001.91;;;20.12;100.00
3206;BME280;1615;53.602;11.418;2022-10-16T11:47:36;101003.63;;;20.04;100.00
3206;BME280;1615;53.602;11.418;2022-10-16T11:50:29;101007.22;;;19.93;100.00
3206;BME280;1615;53.602;11.418;2022-10-16T11:55:49;101008.16;;;20.09;100.00
3206;BME280;1615;53.602;11.418;2022-10-16T11:58:30;101016.75;;;20.16;100.00
3206;BME280;1615;53.602;11.418;2022-10-16T12:03:40;101007.94;;;20.14;100.00
3206;BME280;1615;53.602;11.418;2022-10-16T12:06:36;101006.56;;;20.08;100.00
3206;BME280;1615;53.602;11.418;2022-10-16T12:09:03;100998.66;;;19.98;100.00
3206;BME280;1615;53.602;11.418;2022-10-16T12:22:41;101018.25;;;20.25;100.00
3206;BME280;1615;53.602;11.418;2022-10-16T12:25:20;101030.66;;;20.28;100.00
3206;BME280;1615;53.602;11.418;2022-10-16T12:27:54;101029.25;;;20.34;100.00
3206;BME280;1615;53.602;11.418;2022-10-16T12:30:22;101021.56;;;20.43;100.00
3206;BME280;1615;53.602;11.418;2022-10-16T12:33:00;101030.16;;;20.38;100.00
3206;BME280;1615;53.602;11.418;2022-10-16T12:35:30;101029.69;;;20.36;100.00
3206;BME280;1615;53.602;11.418;2022-10-16T12:38:16;101044.53;;;20.40;100.00
3206;BME280;1615;53.602;11.418;2022-10-16T12:40:44;101035.59;;;20.34;100.00
3206;BME280;1615;53.602;11.418;2022-10-16T12:43:24;101053.34;;;20.42;100.00
3206;BME280;1615;53.602;11.418;2022-10-16T12:48:26;101011.41;;;19.99;100.00
3206;BME280;1615;53.602;11.418;2022-10-16T12:50:51;100945.94;;;19.65;100.00
3206;BME280;1615;53.602;11.418;2022-10-16T12:55:55;101076.25;;;20.35;100.00
3206;BME280;1615;53.602;11.418;2022-10-16T12:58:37;101076.94;;;20.32;100.00
3206;BME280;1615;53.602;11.418;2022-10-16T13:01:37;101076.00;;;20.28;100.00
3206;BME280;1615;53.602;11.418;2022-10-16T13:04:27;101087.50;;;20.15;100.00
3206;BME280;1615;53.602;11.418;2022-10-16T13:07:59;101091.66;;;19.97;100.00
3206;BME280;1615;53.602;11.418;2022-10-16T13:13:21;101092.84;;;19.84;100.00
3206;BME280;1615;53.602;11.418;2022-10-16T13:16:19;101087.00;;;19.77;100.00
3206;BME280;1615;53.602;11.418;2022-10-16T13:22:01;101112.31;;;20.20;100.00
3206;BME280;1615;53.602;11.418;2022-10-16T13:25:15;101103.75;;;20.25;100.00
3206;BME280;1615;53.602;11.418;2022-10-16T13:27:56;101102.34;;;20.31;100.00
3206;BME280;1615;53.602;11.418;2022-10-16T13:30:28;101117.16;;;20.47;100.00
3206;BME280;1615;53.602;11.418;2022-10-16T13:33:10;101117.28;;;20.50;100.00
3206;BME280;1615;53.602;11.418;2022-10-16T13:35:50;101101.75;;;20.37;100.00
3206;BME280;1615;53.602;11.418;2022-10-16T13:38:18;101136.66;;;20.59;100.00
3206;BME280;1615;53.602;11.418;2022-10-16T13:41:02;101135.03;;;20.58;100.00
3206;BME280;1615;53.602;11.418;2022-10-16T13:46:06;101135.03;;;20.58;100.00
3206;BME280;1615;53.602;11.418;2022-10-16T13:48:33;101124.25;;;20.56;100.00
3206;BME280;1615;53.602;11.418;2022-10-16T13:53:31;101104.44;;;20.10;100.00
3206;BME280;1615;53.602;11.418;2022-10-16T13:55:57;101114.44;;;20.11;100.00
3206;BME280;1615;53.602;11.418;2022-10-16T13:58:22;101150.97;;;20.33;100.00
3206;BME280;1615;53.602;11.418;2022-10-16T14:00:56;101156.19;;;20.35;100.00
3206;BME280;1615;53.602;11.418;2022-10-16T14:03:22;101165.00;;;20.37;100.00
3206;BME280;1615;53.602;11.418;2022-10-16T14:05:51;101165.47;;;20.39;100.00
3206;BME280;1615;53.602;11.418;2022-10-16T14:08:17;101162.34;;;20.40;100.00
3206;BME280;1615;53.602;11.418;2022-10-16T14:10:47;101170.09;;;20.47;100.00
3206;BME280;1615;53.602;11.418;2022-10-16T14:13:17;101175.22;;;20.45;100.00
3206;BME280;1615;53.602;11.418;2022-10-16T14:15:47;101178.34;;;20.43;100.00
3206;BME280;1615;53.602;11.418;2022-10-16T14:18:23;101174.97;;;20.26;100.00
3206;BME280;1615;53.602;11.418;2022-10-16T14:20:50;101183.56;;;20.09;100.00
3206;BME280;1615;53.602;11.418;2022-10-16T14:23:28;101182.13;;;20.03;100.00
3206;BME280;1615;53.602;11.418;2022-10-16T14:25:53;101072.28;;;19.20;100.00
3206;BME280;1615;53.602;11.418;2022-10-16T14:28:22;101199.94;;;19.78;100.00